sensor_id;sensor_type;location;lat;lon;timestamp;temperature;humidity
70550;DHT22;58101;48.658;2.328;2023-04-25T00:00:28;9.40;99.90
70550;DHT22;58101;48.658;2.328;2023-04-25T00:02:54;9.60;99.90
70550;DHT22;58101;48.658;2.328;2023-04-25T00:05:22;9.50;99.90
70550;DHT22;58101;48.658;2.328;2023-04-25T00:07:51;9.60;99.90
70550;DHT22;58101;48.658;2.328;2023-04-25T00:10:18;9.50;99.90
70550;DHT22;58101;48.658;2.328;2023-04-25T00:12:43;9.50;99.90
70550;DHT22;58101;48.658;2.328;2023-04-25T00:15:09;9.30;99.90
70550;DHT22;58101;48.658;2.328;2023-04-25T00:17:35;9.40;99.90
70550;DHT22;58101;48.658;2.328;2023-04-25T00:20:04;9.40;99.90
70550;DHT22;58101;48.658;2.328;2023-04-25T00:22:35;9.40;99.90
70550;DHT22;58101;48.658;2.328;2023-04-25T00:25:05;9.30;99.90
70550;DHT22;58101;48.658;2.328;2023-04-25T00:27:31;9.30;99.90
70550;DHT22;58101;48.658;2.328;2023-04-25T00:29:57;9.20;99.90
70550;DHT22;58101;48.658;2.328;2023-04-25T00:32:23;9.20;99.90
70550;DHT22;58101;48.658;2.328;2023-04-25T00:34:48;9.10;99.90
70550;DHT22;58101;48.658;2.328;2023-04-25T00:37:14;9.10;99.90
70550;DHT22;58101;48.658;2.328;2023-04-25T00:39:40;9.00;99.90
70550;DHT22;58101;48.658;2.328;2023-04-25T00:42:05;9.00;99.90
70550;DHT22;58101;48.658;2.328;2023-04-25T00:44:32;9.00;99.90
70550;DHT22;58101;48.658;2.328;2023-04-25T00:47:00;8.90;99.90
70550;DHT22;58101;48.658;2.328;2023-04-25T00:49:25;8.90;99.90
70550;DHT22;58101;48.658;2.328;2023-04-25T00:51:51;8.90;99.90
70550;DHT22;58101;48.658;2.328;2023-04-25T00:54:16;8.90;99.90
70550;DHT22;58101;48.658;2.328;2023-04-25T00:56:42;8.80;99.90
70550;DHT22;58101;48.658;2.328;2023-04-25T00:59:13;8.70;99.90
70550;DHT22;58101;48.658;2.328;2023-04-25T01:01:41;8.70;99.90
70550;DHT22;58101;48.658;2.328;2023-04-25T01:04:07;8.70;99.90
70550;DHT22;58101;48.658;2.328;2023-04-25T01:06:33;8.80;99.90
70550;DHT22;58101;48.658;2.328;2023-04-25T01:08:59;8.80;99.90
70550;DHT22;58101;48.658;2.328;2023-04-25T01:11:25;8.60;99.90
70550;DHT22;58101;48.658;2.328;2023-04-25T01:13:51;8.60;99.90
70550;DHT22;58101;48.658;2.328;2023-04-25T01:19:09;8.50;99.90
70550;DHT22;58101;48.658;2.328;2023-04-25T01:21:36;8.50;99.90
70550;DHT22;58101;48.658;2.328;2023-04-25T01:24:02;8.40;99.90
70550;DHT22;58101;48.658;2.328;2023-04-25T01:26:28;8.40;99.90
70550;DHT22;58101;48.658;2.328;2023-04-25T01:28:55;8.40;99.90
70550;DHT22;58101;48.658;2.328;2023-04-25T01:31:21;8.40;99.90
70550;DHT22;58101;48.658;2.328;2023-04-25T01:33:47;8.50;99.90
70550;DHT22;58101;48.658;2.328;2023-04-25T01:36:13;8.30;99.90
70550;DHT22;58101;48.658;2.328;2023-04-25T01:38:39;8.30;99.90
70550;DHT22;58101;48.658;2.328;2023-04-25T01:41:05;8.30;99.90
70550;DHT22;58101;48.658;2.328;2023-04-25T01:43:31;8.20;99.90
70550;DHT22;58101;48.658;2.328;2023-04-25T01:45:57;8.30;99.90
70550;DHT22;58101;48.658;2.328;2023-04-25T01:48:23;8.20;99.90
70550;DHT22;58101;48.658;2.328;2023-04-25T01:50:48;8.10;99.90
70550;DHT22;58101;48.658;2.328;2023-04-25T01:53:14;8.10;99.90
70550;DHT22;58101;48.658;2.328;2023-04-25T01:55:40;8.10;99.90
70550;DHT22;58101;48.658;2.328;2023-04-25T01:58:05;8.10;99.90
70550;DHT22;58101;48.658;2.328;2023-04-25T02:00:35;8.10;99.90
70550;DHT22;58101;48.658;2.328;2023-04-25T02:03:04;8.10;99.90
70550;DHT22;58101;48.658;2.328;2023-04-25T02:05:35;8.10;99.90
70550;DHT22;58101;48.658;2.328;2023-04-25T02:08:01;8.00;99.90
70550;DHT22;58101;48.658;2.328;2023-04-25T02:10:27;7.90;99.90
70550;DHT22;58101;48.658;2.328;2023-04-25T02:12:52;7.90;99.90
70550;DHT22;58101;48.658;2.328;2023-04-25T02:15:18;7.90;99.90
70550;DHT22;58101;48.658;2.328;2023-04-25T02:17:44;7.90;99.90
70550;DHT22;58101;48.658;2.328;2023-04-25T02:20:11;7.90;99.90
70550;DHT22;58101;48.658;2.328;2023-04-25T02:22:36;7.80;99.90
70550;DHT22;58101;48.658;2.328;2023-04-25T02:25:02;7.80;99.90
70550;DHT22;58101;48.658;2.328;2023-04-25T02:27:30;7.90;99.90
70550;DHT22;58101;48.658;2.328;2023-04-25T02:29:56;8.00;99.90
70550;DHT22;58101;48.658;2.328;2023-04-25T02:32:21;7.90;99.90
70550;DHT22;58101;48.658;2.328;2023-04-25T02:34:59;7.90;99.90
70550;DHT22;58101;48.658;2.328;2023-04-25T02:37:29;8.00;99.90
70550;DHT22;58101;48.658;2.328;2023-04-25T02:39:55;8.00;99.90
70550;DHT22;58101;48.658;2.328;2023-04-25T02:42:21;8.10;99.90
70550;DHT22;58101;48.658;2.328;2023-04-25T02:44:47;8.10;99.90
70550;DHT22;58101;48.658;2.328;2023-04-25T02:47:22;8.10;99.90
70550;DHT22;58101;48.658;2.328;2023-04-25T02:49:47;8.10;99.90
70550;DHT22;58101;48.658;2.328;2023-04-25T02:52:13;8.20;99.90
70550;DHT22;58101;48.658;2.328;2023-04-25T02:54:40;8.20;99.90
70550;DHT22;58101;48.658;2.328;2023-04-25T02:57:06;8.20;99.90
70550;DHT22;58101;48.658;2.328;2023-04-25T02:59:32;8.30;99.90
70550;DHT22;58101;48.658;2.328;2023-04-25T03:01:58;8.30;99.90
70550;DHT22;58101;48.658;2.328;2023-04-25T03:04:31;8.30;99.90
70550;DHT22;58101;48.658;2.328;2023-04-25T03:06:56;8.30;99.90
70550;DHT22;58101;48.658;2.328;2023-04-25T03:09:22;8.30;99.90
70550;DHT22;58101;48.658;2.328;2023-04-25T03:11:48;8.20;99.90
70550;DHT22;58101;48.658;2.328;2023-04-25T03:14:13;8.30;99.90
70550;DHT22;58101;48.658;2.328;2023-04-25T03:16:42;8.20;99.90
70550;DHT22;58101;48.658;2.328;2023-04-25T03:19:08;8.20;99.90
70550;DHT22;58101;48.658;2.328;2023-04-25T03:22:02;8.20;99.90
70550;DHT22;58101;48.658;2.328;2023-04-25T03:24:28;8.30;99.90
70550;DHT22;58101;48.658;2.328;2023-04-25T03:27:02;8.30;99.90
70550;DHT22;58101;48.658;2.328;2023-04-25T03:29:45;8.40;99.90
70550;DHT22;58101;48.658;2.328;2023-04-25T03:32:11;8.30;99.90
70550;DHT22;58101;48.658;2.328;2023-04-25T03:34:37;8.40;99.90
70550;DHT22;58101;48.658;2.328;2023-04-25T03:37:20;8.20;99.90
70550;DHT22;58101;48.658;2.328;2023-04-25T03:39:46;8.20;99.90
70550;DHT22;58101;48.658;2.328;2023-04-25T03:45:51;8.20;99.90
70550;DHT22;58101;48.658;2.328;2023-04-25T03:48:17;8.00;99.90
70550;DHT22;58101;48.658;2.328;2023-04-25T03:50:43;8.00;99.90
70550;DHT22;58101;48.658;2.328;2023-04-25T03:53:08;7.90;99.90
70550;DHT22;58101;48.658;2.328;2023-04-25T03:55:40;7.90;99.90
70550;DHT22;58101;48.658;2.328;2023-04-25T03:58:53;7.90;99.90
70550;DHT22;58101;48.658;2.328;2023-04-25T04:02:04;7.80;99.90
70550;DHT22;58101;48.658;2.328;2023-04-25T04:08:05;7.70;99.90
70550;DHT22;58101;48.658;2.328;2023-04-25T04:10:36;7.70;99.90
70550;DHT22;58101;48.658;2.328;2023-04-25T04:13:14;7.70;99.90
70550;DHT22;58101;48.658;2.328;2023-04-25T04:15:55;7.80;99.90
70550;DHT22;58101;48.658;2.328;2023-04-25T04:18:21;7.80;99.90
70550;DHT22;58101;48.658;2.328;2023-04-25T04:24:34;7.80;99.90
70550;DHT22;58101;48.658;2.328;2023-04-25T04:27:24;7.70;99.90
70550;DHT22;58101;48.658;2.328;2023-04-25T04:36:35;7.60;99.90
70550;DHT22;58101;48.658;2.328;2023-04-25T04:45:57;7.50;99.90
70550;DHT22;58101;48.658;2.328;2023-04-25T04:48:26;7.50;99.90
70550;DHT22;58101;48.658;2.328;2023-04-25T04:50:59;7.60;99.90
70550;DHT22;58101;48.658;2.328;2023-04-25T04:53:44;7.60;99.90
70550;DHT22;58101;48.658;2.328;2023-04-25T04:57:06;7.70;99.90
70550;DHT22;58101;48.658;2.328;2023-04-25T04:59:45;7.80;99.90
70550;DHT22;58101;48.658;2.328;2023-04-25T05:02:26;7.80;99.90
70550;DHT22;58101;48.658;2.328;2023-04-25T05:05:00;7.90;99.90
70550;DHT22;58101;48.658;2.328;2023-04-25T05:07:26;8.00;99.90
70550;DHT22;58101;48.658;2.328;2023-04-25T05:10:15;8.00;99.90
70550;DHT22;58101;48.658;2.328;2023-04-25T05:12:43;8.00;99.90
70550;DHT22;58101;48.658;2.328;2023-04-25T05:15:12;8.00;99.90
70550;DHT22;58101;48.658;2.328;2023-04-25T05:20:50;8.10;99.90
70550;DHT22;58101;48.658;2.328;2023-04-25T05:23:30;8.20;99.90
70550;DHT22;58101;48.658;2.328;2023-04-25T05:25:56;8.30;99.90
70550;DHT22;58101;48.658;2.328;2023-04-25T05:28:51;8.30;99.90
70550;DHT22;58101;48.658;2.328;2023-04-25T05:31:17;8.40;99.90
70550;DHT22;58101;48.658;2.328;2023-04-25T05:34:00;8.40;99.90
70550;DHT22;58101;48.658;2.328;2023-04-25T05:37:01;8.50;99.90
70550;DHT22;58101;48.658;2.328;2023-04-25T05:40:05;8.50;99.90
70550;DHT22;58101;48.658;2.328;2023-04-25T05:42:32;8.50;99.90
70550;DHT22;58101;48.658;2.328;2023-04-25T05:48:06;8.60;99.90
70550;DHT22;58101;48.658;2.328;2023-04-25T05:50:37;8.70;99.90
70550;DHT22;58101;48.658;2.328;2023-04-25T05:53:03;8.70;99.90
70550;DHT22;58101;48.658;2.328;2023-04-25T05:55:28;8.80;99.90
70550;DHT22;58101;48.658;2.328;2023-04-25T05:57:54;8.80;99.90
70550;DHT22;58101;48.658;2.328;2023-04-25T06:06:19;8.90;99.90
70550;DHT22;58101;48.658;2.328;2023-04-25T06:08:46;8.90;99.90
70550;DHT22;58101;48.658;2.328;2023-04-25T06:11:27;9.00;99.90
70550;DHT22;58101;48.658;2.328;2023-04-25T06:13:53;9.00;99.90
70550;DHT22;58101;48.658;2.328;2023-04-25T06:16:29;8.90;99.90
70550;DHT22;58101;48.658;2.328;2023-04-25T06:18:55;9.00;99.90
70550;DHT22;58101;48.658;2.328;2023-04-25T06:21:21;9.00;99.90
70550;DHT22;58101;48.658;2.328;2023-04-25T06:23:46;9.10;99.90
70550;DHT22;58101;48.658;2.328;2023-04-25T06:26:12;9.10;99.90
70550;DHT22;58101;48.658;2.328;2023-04-25T06:28:38;9.10;99.90
70550;DHT22;58101;48.658;2.328;2023-04-25T06:34:14;9.20;99.90
70550;DHT22;58101;48.658;2.328;2023-04-25T06:36:40;9.20;99.90
70550;DHT22;58101;48.658;2.328;2023-04-25T06:39:44;9.20;99.90
70550;DHT22;58101;48.658;2.328;2023-04-25T06:42:37;9.30;99.90
70550;DHT22;58101;48.658;2.328;2023-04-25T06:45:16;9.30;99.90
70550;DHT22;58101;48.658;2.328;2023-04-25T06:47:45;9.30;99.90
70550;DHT22;58101;48.658;2.328;2023-04-25T06:50:35;9.30;99.90
70550;DHT22;58101;48.658;2.328;2023-04-25T06:53:03;9.40;99.90
70550;DHT22;58101;48.658;2.328;2023-04-25T06:55:58;9.50;99.90
70550;DHT22;58101;48.658;2.328;2023-04-25T06:58:50;9.60;99.90
70550;DHT22;58101;48.658;2.328;2023-04-25T07:01:18;9.70;99.90
70550;DHT22;58101;48.658;2.328;2023-04-25T07:03:57;9.70;99.90
70550;DHT22;58101;48.658;2.328;2023-04-25T07:06:22;9.70;99.90
70550;DHT22;58101;48.658;2.328;2023-04-25T07:08:48;9.80;99.90
70550;DHT22;58101;48.658;2.328;2023-04-25T07:11:14;9.90;99.90
70550;DHT22;58101;48.658;2.328;2023-04-25T07:13:42;9.90;99.90
70550;DHT22;58101;48.658;2.328;2023-04-25T07:16:08;9.90;99.90
70550;DHT22;58101;48.658;2.328;2023-04-25T07:18:33;10.10;99.90
70550;DHT22;58101;48.658;2.328;2023-04-25T07:20:59;10.10;99.90
70550;DHT22;58101;48.658;2.328;2023-04-25T07:23:25;10.10;99.90
70550;DHT22;58101;48.658;2.328;2023-04-25T07:25:51;10.10;99.90
70550;DHT22;58101;48.658;2.328;2023-04-25T07:28:17;10.10;99.90
70550;DHT22;58101;48.658;2.328;2023-04-25T07:30:43;10.10;99.90
70550;DHT22;58101;48.658;2.328;2023-04-25T07:33:09;10.20;99.90
70550;DHT22;58101;48.658;2.328;2023-04-25T07:35:37;10.20;99.90
70550;DHT22;58101;48.658;2.328;2023-04-25T07:38:02;10.30;99.90
70550;DHT22;58101;48.658;2.328;2023-04-25T07:40:29;10.40;99.90
70550;DHT22;58101;48.658;2.328;2023-04-25T07:42:55;10.50;99.90
70550;DHT22;58101;48.658;2.328;2023-04-25T07:45:21;10.60;99.90
70550;DHT22;58101;48.658;2.328;2023-04-25T07:47:46;10.80;99.90
70550;DHT22;58101;48.658;2.328;2023-04-25T07:50:12;11.00;99.90
70550;DHT22;58101;48.658;2.328;2023-04-25T07:52:38;11.10;99.90
70550;DHT22;58101;48.658;2.328;2023-04-25T07:55:03;11.10;99.90
70550;DHT22;58101;48.658;2.328;2023-04-25T07:57:29;11.00;99.90
70550;DHT22;58101;48.658;2.328;2023-04-25T07:59:55;11.00;99.90
70550;DHT22;58101;48.658;2.328;2023-04-25T08:02:21;11.10;99.90
70550;DHT22;58101;48.658;2.328;2023-04-25T08:04:46;11.30;99.90
70550;DHT22;58101;48.658;2.328;2023-04-25T08:07:12;11.60;99.90
70550;DHT22;58101;48.658;2.328;2023-04-25T08:09:38;11.90;99.90
70550;DHT22;58101;48.658;2.328;2023-04-25T08:12:22;12.10;99.90
70550;DHT22;58101;48.658;2.328;2023-04-25T08:14:48;12.10;99.90
70550;DHT22;58101;48.658;2.328;2023-04-25T08:17:13;11.90;99.90
70550;DHT22;58101;48.658;2.328;2023-04-25T08:19:40;11.70;99.90
70550;DHT22;58101;48.658;2.328;2023-04-25T08:22:06;11.50;99.90
70550;DHT22;58101;48.658;2.328;2023-04-25T08:24:31;11.40;99.90
70550;DHT22;58101;48.658;2.328;2023-04-25T08:26:57;11.40;99.90
70550;DHT22;58101;48.658;2.328;2023-04-25T08:29:24;11.30;99.90
70550;DHT22;58101;48.658;2.328;2023-04-25T08:31:51;11.30;99.90
70550;DHT22;58101;48.658;2.328;2023-04-25T08:34:39;11.30;99.90
70550;DHT22;58101;48.658;2.328;2023-04-25T08:37:08;11.30;99.90
70550;DHT22;58101;48.658;2.328;2023-04-25T08:42:44;11.20;99.90
70550;DHT22;58101;48.658;2.328;2023-04-25T08:45:11;11.10;99.90
70550;DHT22;58101;48.658;2.328;2023-04-25T08:47:38;11.20;99.90
70550;DHT22;58101;48.658;2.328;2023-04-25T08:50:05;11.20;99.90
70550;DHT22;58101;48.658;2.328;2023-04-25T08:52:35;11.30;99.90
70550;DHT22;58101;48.658;2.328;2023-04-25T08:55:01;11.20;99.90
70550;DHT22;58101;48.658;2.328;2023-04-25T08:57:28;11.50;99.90
70550;DHT22;58101;48.658;2.328;2023-04-25T08:59:57;11.50;99.90
70550;DHT22;58101;48.658;2.328;2023-04-25T09:02:51;11.60;99.90
70550;DHT22;58101;48.658;2.328;2023-04-25T09:05:25;11.60;99.90
70550;DHT22;58101;48.658;2.328;2023-04-25T09:07:55;11.50;99.90
70550;DHT22;58101;48.658;2.328;2023-04-25T09:10:22;11.40;99.90
70550;DHT22;58101;48.658;2.328;2023-04-25T09:15:53;11.60;99.90
70550;DHT22;58101;48.658;2.328;2023-04-25T09:18:29;11.70;99.90
70550;DHT22;58101;48.658;2.328;2023-04-25T09:21:08;11.90;99.90
70550;DHT22;58101;48.658;2.328;2023-04-25T09:23:43;12.10;99.90
70550;DHT22;58101;48.658;2.328;2023-04-25T09:26:17;12.40;99.90
70550;DHT22;58101;48.658;2.328;2023-04-25T09:28:43;12.50;99.90
70550;DHT22;58101;48.658;2.328;2023-04-25T09:31:24;12.60;99.90
70550;DHT22;58101;48.658;2.328;2023-04-25T09:33:59;12.60;99.90
70550;DHT22;58101;48.658;2.328;2023-04-25T09:36:26;12.50;99.90
70550;DHT22;58101;48.658;2.328;2023-04-25T09:38:52;12.40;99.90
70550;DHT22;58101;48.658;2.328;2023-04-25T09:41:43;12.30;99.90
70550;DHT22;58101;48.658;2.328;2023-04-25T09:44:12;12.20;99.90
70550;DHT22;58101;48.658;2.328;2023-04-25T09:46:38;12.20;99.90
70550;DHT22;58101;48.658;2.328;2023-04-25T09:49:07;12.10;99.90
70550;DHT22;58101;48.658;2.328;2023-04-25T09:51:33;12.00;99.90
70550;DHT22;58101;48.658;2.328;2023-04-25T09:53:59;11.90;99.90
70550;DHT22;58101;48.658;2.328;2023-04-25T09:59:39;11.70;99.90
70550;DHT22;58101;48.658;2.328;2023-04-25T10:02:07;11.70;99.90
70550;DHT22;58101;48.658;2.328;2023-04-25T10:04:56;11.60;99.90
70550;DHT22;58101;48.658;2.328;2023-04-25T10:07:24;11.50;99.90
70550;DHT22;58101;48.658;2.328;2023-04-25T10:10:06;11.50;99.90
70550;DHT22;58101;48.658;2.328;2023-04-25T10:12:33;11.30;99.90
70550;DHT22;58101;48.658;2.328;2023-04-25T10:15:02;11.40;99.90
70550;DHT22;58101;48.658;2.328;2023-04-25T10:17:38;11.40;99.90
70550;DHT22;58101;48.658;2.328;2023-04-25T10:20:08;11.40;99.90
70550;DHT22;58101;48.658;2.328;2023-04-25T10:22:39;11.60;99.90
70550;DHT22;58101;48.658;2.328;2023-04-25T10:25:07;11.80;99.90
70550;DHT22;58101;48.658;2.328;2023-04-25T10:27:51;12.00;99.90
70550;DHT22;58101;48.658;2.328;2023-04-25T10:33:40;12.00;99.90
70550;DHT22;58101;48.658;2.328;2023-04-25T10:36:17;12.00;99.90
70550;DHT22;58101;48.658;2.328;2023-04-25T10:38:44;11.90;99.90
70550;DHT22;58101;48.658;2.328;2023-04-25T10:41:13;11.80;99.90
70550;DHT22;58101;48.658;2.328;2023-04-25T10:44:08;11.80;99.90
70550;DHT22;58101;48.658;2.328;2023-04-25T10:46:36;11.90;99.90
70550;DHT22;58101;48.658;2.328;2023-04-25T10:49:05;12.20;99.90
70550;DHT22;58101;48.658;2.328;2023-04-25T10:51:36;13.20;99.90
70550;DHT22;58101;48.658;2.328;2023-04-25T10:54:18;15.10;99.90
70550;DHT22;58101;48.658;2.328;2023-04-25T10:56:44;16.50;86.90
70550;DHT22;58101;48.658;2.328;2023-04-25T10:59:16;16.80;72.50
70550;DHT22;58101;48.658;2.328;2023-04-25T11:02:13;16.50;66.60
70550;DHT22;58101;48.658;2.328;2023-04-25T11:05:15;15.90;65.40
70550;DHT22;58101;48.658;2.328;2023-04-25T11:07:58;15.30;67.50
70550;DHT22;58101;48.658;2.328;2023-04-25T11:13:42;14.20;74.70
70550;DHT22;58101;48.658;2.328;2023-04-25T11:16:08;13.90;79.10
70550;DHT22;58101;48.658;2.328;2023-04-25T11:18:34;13.70;81.40
70550;DHT22;58101;48.658;2.328;2023-04-25T11:21:21;13.60;85.40
70550;DHT22;58101;48.658;2.328;2023-04-25T11:23:47;13.60;86.40
70550;DHT22;58101;48.658;2.328;2023-04-25T11:26:13;13.60;84.30
70550;DHT22;58101;48.658;2.328;2023-04-25T11:28:46;13.70;86.70
70550;DHT22;58101;48.658;2.328;2023-04-25T11:31:12;13.70;76.40
70550;DHT22;58101;48.658;2.328;2023-04-25T11:33:38;13.80;80.60
70550;DHT22;58101;48.658;2.328;2023-04-25T11:36:06;14.00;83.00
70550;DHT22;58101;48.658;2.328;2023-04-25T11:38:41;14.10;86.30
70550;DHT22;58101;48.658;2.328;2023-04-25T11:41:19;14.10;81.60
70550;DHT22;58101;48.658;2.328;2023-04-25T11:43:45;14.00;80.70
70550;DHT22;58101;48.658;2.328;2023-04-25T11:46:14;13.90;79.90
70550;DHT22;58101;48.658;2.328;2023-04-25T11:48:46;13.60;78.90
70550;DHT22;58101;48.658;2.328;2023-04-25T11:51:45;13.40;80.80
70550;DHT22;58101;48.658;2.328;2023-04-25T11:54:11;13.30;84.80
70550;DHT22;58101;48.658;2.328;2023-04-25T11:56:41;13.00;87.60
70550;DHT22;58101;48.658;2.328;2023-04-25T11:59:07;12.90;92.30
70550;DHT22;58101;48.658;2.328;2023-04-25T12:01:37;12.80;92.80
70550;DHT22;58101;48.658;2.328;2023-04-25T12:06:45;12.60;93.70
70550;DHT22;58101;48.658;2.328;2023-04-25T12:09:20;12.50;96.30
70550;DHT22;58101;48.658;2.328;2023-04-25T12:11:54;12.60;96.70
70550;DHT22;58101;48.658;2.328;2023-04-25T12:14:24;12.60;95.30
70550;DHT22;58101;48.658;2.328;2023-04-25T12:17:28;12.70;93.30
70550;DHT22;58101;48.658;2.328;2023-04-25T12:20:12;12.70;92.40
70550;DHT22;58101;48.658;2.328;2023-04-25T12:22:42;12.70;93.50
70550;DHT22;58101;48.658;2.328;2023-04-25T12:25:40;12.80;93.10
70550;DHT22;58101;48.658;2.328;2023-04-25T12:28:21;12.80;94.50
70550;DHT22;58101;48.658;2.328;2023-04-25T12:31:03;12.80;94.60
70550;DHT22;58101;48.658;2.328;2023-04-25T12:37:04;12.90;93.30
70550;DHT22;58101;48.658;2.328;2023-04-25T12:39:30;12.90;93.20
70550;DHT22;58101;48.658;2.328;2023-04-25T12:42:08;12.90;93.40
70550;DHT22;58101;48.658;2.328;2023-04-25T12:44:45;13.00;93.30
70550;DHT22;58101;48.658;2.328;2023-04-25T12:47:24;13.00;93.60
70550;DHT22;58101;48.658;2.328;2023-04-25T12:50:06;13.00;92.30
70550;DHT22;58101;48.658;2.328;2023-04-25T12:53:03;13.00;92.00
70550;DHT22;58101;48.658;2.328;2023-04-25T13:02:19;13.20;83.80
70550;DHT22;58101;48.658;2.328;2023-04-25T13:04:56;13.30;83.40
70550;DHT22;58101;48.658;2.328;2023-04-25T13:13:32;13.50;79.60
70550;DHT22;58101;48.658;2.328;2023-04-25T13:16:03;13.60;81.10
70550;DHT22;58101;48.658;2.328;2023-04-25T13:18:35;13.70;79.90
70550;DHT22;58101;48.658;2.328;2023-04-25T13:21:04;13.80;79.60
70550;DHT22;58101;48.658;2.328;2023-04-25T13:26:45;13.90;76.90
70550;DHT22;58101;48.658;2.328;2023-04-25T13:29:18;14.00;76.30
70550;DHT22;58101;48.658;2.328;2023-04-25T13:31:43;14.10;75.60
70550;DHT22;58101;48.658;2.328;2023-04-25T13:34:09;14.10;72.20
70550;DHT22;58101;48.658;2.328;2023-04-25T13:36:38;14.10;71.70
70550;DHT22;58101;48.658;2.328;2023-04-25T13:39:04;14.00;73.60
70550;DHT22;58101;48.658;2.328;2023-04-25T13:41:32;13.90;72.70
70550;DHT22;58101;48.658;2.328;2023-04-25T13:43:58;13.90;72.60
70550;DHT22;58101;48.658;2.328;2023-04-25T13:46:42;13.80;70.70
70550;DHT22;58101;48.658;2.328;2023-04-25T13:49:19;13.70;74.00
70550;DHT22;58101;48.658;2.328;2023-04-25T13:51:51;13.70;74.90
70550;DHT22;58101;48.658;2.328;2023-04-25T13:54:19;13.70;74.90
70550;DHT22;58101;48.658;2.328;2023-04-25T13:56:55;13.70;75.20
70550;DHT22;58101;48.658;2.328;2023-04-25T13:59:24;13.70;76.80
70550;DHT22;58101;48.658;2.328;2023-04-25T14:01:49;13.70;73.60
70550;DHT22;58101;48.658;2.328;2023-04-25T14:04:21;13.70;75.30
70550;DHT22;58101;48.658;2.328;2023-04-25T14:10:31;13.70;72.00
70550;DHT22;58101;48.658;2.328;2023-04-25T14:13:02;13.70;75.00
70550;DHT22;58101;48.658;2.328;2023-04-25T14:15:32;13.80;74.20
70550;DHT22;58101;48.658;2.328;2023-04-25T14:17:58;13.90;71.80
70550;DHT22;58101;48.658;2.328;2023-04-25T14:20:26;13.90;72.40
70550;DHT22;58101;48.658;2.328;2023-04-25T14:22:52;13.90;72.10
70550;DHT22;58101;48.658;2.328;2023-04-25T14:25:22;14.00;69.70
70550;DHT22;58101;48.658;2.328;2023-04-25T14:27:47;14.00;68.20
70550;DHT22;58101;48.658;2.328;2023-04-25T14:30:16;14.10;68.10
70550;DHT22;58101;48.658;2.328;2023-04-25T14:32:44;14.20;68.20
70550;DHT22;58101;48.658;2.328;2023-04-25T14:35:19;14.20;67.20
70550;DHT22;58101;48.658;2.328;2023-04-25T14:37:46;14.30;67.80
70550;DHT22;58101;48.658;2.328;2023-04-25T14:40:12;14.30;67.20
70550;DHT22;58101;48.658;2.328;2023-04-25T14:42:49;14.30;67.30
70550;DHT22;58101;48.658;2.328;2023-04-25T14:45:16;14.40;68.70
70550;DHT22;58101;48.658;2.328;2023-04-25T14:47:43;14.30;66.60
70550;DHT22;58101;48.658;2.328;2023-04-25T14:50:11;14.30;67.90
70550;DHT22;58101;48.658;2.328;2023-04-25T14:52:43;14.20;66.30
70550;DHT22;58101;48.658;2.328;2023-04-25T14:58:22;14.20;67.50
70550;DHT22;58101;48.658;2.328;2023-04-25T15:00:48;14.00;65.80
70550;DHT22;58101;48.658;2.328;2023-04-25T15:03:14;14.00;64.00
70550;DHT22;58101;48.658;2.328;2023-04-25T15:05:41;13.90;66.10
70550;DHT22;58101;48.658;2.328;2023-04-25T15:08:08;14.00;66.40
70550;DHT22;58101;48.658;2.328;2023-04-25T15:10:34;14.00;64.00
70550;DHT22;58101;48.658;2.328;2023-04-25T15:13:00;14.10;64.00
70550;DHT22;58101;48.658;2.328;2023-04-25T15:18:46;14.30;64.40
70550;DHT22;58101;48.658;2.328;2023-04-25T15:21:43;14.60;64.50
70550;DHT22;58101;48.658;2.328;2023-04-25T15:24:47;14.60;63.90
70550;DHT22;58101;48.658;2.328;2023-04-25T15:27:18;14.70;63.50
70550;DHT22;58101;48.658;2.328;2023-04-25T15:29:47;14.60;61.00
70550;DHT22;58101;48.658;2.328;2023-04-25T15:32:12;14.60;62.20
70550;DHT22;58101;48.658;2.328;2023-04-25T15:35:19;14.50;62.50
70550;DHT22;58101;48.658;2.328;2023-04-25T15:37:45;14.50;62.60
70550;DHT22;58101;48.658;2.328;2023-04-25T15:40:13;14.50;63.50
70550;DHT22;58101;48.658;2.328;2023-04-25T15:42:44;14.50;61.60
70550;DHT22;58101;48.658;2.328;2023-04-25T15:45:14;14.20;60.80
70550;DHT22;58101;48.658;2.328;2023-04-25T15:47:42;14.30;61.80
70550;DHT22;58101;48.658;2.328;2023-04-25T15:50:32;14.20;63.10
70550;DHT22;58101;48.658;2.328;2023-04-25T15:52:58;14.00;59.20
70550;DHT22;58101;48.658;2.328;2023-04-25T15:55:24;14.00;61.00
70550;DHT22;58101;48.658;2.328;2023-04-25T15:57:51;14.00;63.30
70550;DHT22;58101;48.658;2.328;2023-04-25T16:00:17;14.00;62.90
70550;DHT22;58101;48.658;2.328;2023-04-25T16:02:44;14.00;64.00
70550;DHT22;58101;48.658;2.328;2023-04-25T16:05:11;14.00;63.60
70550;DHT22;58101;48.658;2.328;2023-04-25T16:11:30;14.00;61.70
70550;DHT22;58101;48.658;2.328;2023-04-25T16:13:55;13.90;60.70
70550;DHT22;58101;48.658;2.328;2023-04-25T16:16:21;13.80;61.20
70550;DHT22;58101;48.658;2.328;2023-04-25T16:18:56;13.70;61.00
70550;DHT22;58101;48.658;2.328;2023-04-25T16:21:22;13.60;62.00
70550;DHT22;58101;48.658;2.328;2023-04-25T16:23:47;13.60;63.60
70550;DHT22;58101;48.658;2.328;2023-04-25T16:26:13;13.60;63.10
70550;DHT22;58101;48.658;2.328;2023-04-25T16:28:39;13.70;62.30
70550;DHT22;58101;48.658;2.328;2023-04-25T16:31:04;13.70;64.50
70550;DHT22;58101;48.658;2.328;2023-04-25T16:33:46;13.70;64.80
70550;DHT22;58101;48.658;2.328;2023-04-25T16:36:12;13.70;66.20
70550;DHT22;58101;48.658;2.328;2023-04-25T16:38:38;13.70;66.40
70550;DHT22;58101;48.658;2.328;2023-04-25T16:41:05;13.70;67.50
70550;DHT22;58101;48.658;2.328;2023-04-25T16:43:30;13.70;65.30
70550;DHT22;58101;48.658;2.328;2023-04-25T16:45:57;13.70;65.60
70550;DHT22;58101;48.658;2.328;2023-04-25T16:48:25;13.70;65.60
70550;DHT22;58101;48.658;2.328;2023-04-25T16:50:55;13.60;65.80
70550;DHT22;58101;48.658;2.328;2023-04-25T16:53:21;13.70;63.70
70550;DHT22;58101;48.658;2.328;2023-04-25T16:55:47;13.60;63.70
70550;DHT22;58101;48.658;2.328;2023-04-25T16:58:13;13.60;64.00
70550;DHT22;58101;48.658;2.328;2023-04-25T17:00:39;13.50;64.70
70550;DHT22;58101;48.658;2.328;2023-04-25T17:03:06;13.50;64.10
70550;DHT22;58101;48.658;2.328;2023-04-25T17:05:32;13.30;63.50
70550;DHT22;58101;48.658;2.328;2023-04-25T17:07:59;13.20;67.10
70550;DHT22;58101;48.658;2.328;2023-04-25T17:10:25;13.10;66.30
70550;DHT22;58101;48.658;2.328;2023-04-25T17:12:51;12.90;65.00
70550;DHT22;58101;48.658;2.328;2023-04-25T17:15:17;12.90;66.30
70550;DHT22;58101;48.658;2.328;2023-04-25T17:17:42;12.90;66.70
70550;DHT22;58101;48.658;2.328;2023-04-25T17:20:08;12.80;66.90
70550;DHT22;58101;48.658;2.328;2023-04-25T17:22:35;12.70;65.50
70550;DHT22;58101;48.658;2.328;2023-04-25T17:25:02;12.70;67.80
70550;DHT22;58101;48.658;2.328;2023-04-25T17:27:33;12.60;67.00
70550;DHT22;58101;48.658;2.328;2023-04-25T17:29:59;12.60;68.00
70550;DHT22;58101;48.658;2.328;2023-04-25T17:32:28;12.60;67.90
70550;DHT22;58101;48.658;2.328;2023-04-25T17:34:54;12.70;67.40